Time;durP1;ratioP1;P1;durP2;ratioP2;P2;SDS_P1;SDS_P2;PMS_P1;PMS_P2;Temp;Humidity;BMP_temperature;BMP_pressure;BME280_temperature;BME280_humidity;BME280_pressure;Samples;Min_cycle;Max_cycle;Signal;HPM_P1;HPM_P2
2022/02/16 00:02:12;;;;;;;;;1.00;1.00;;;;;11.23;74.79;100658.94;5110051;27;45724;-59
2022/02/16 00:04:39;;;;;;;;;1.00;1.00;;;;;11.24;74.67;100660.63;5104374;27;45430;-58
2022/02/16 00:07:05;;;;;;;;;2.00;1.00;;;;;11.21;74.79;100644.16;5102503;27;45429;-58
2022/02/16 00:09:32;;;;;;;;;0.50;0.00;;;;;11.21;74.92;100631.81;5108246;27;45809;-55
2022/02/16 00:11:57;;;;;;;;;0.75;0.00;;;;;11.22;74.70;100638.78;5109755;27;45419;-53
2022/02/16 00:14:23;;;;;;;;;0.00;0.00;;;;;11.23;75.21;100635.22;5106284;27;45715;-59
2022/02/16 00:16:49;;;;;;;;;1.75;0.75;;;;;11.24;74.74;100633.41;5109635;27;45500;-57
2022/02/16 00:19:15;;;;;;;;;0.00;0.00;;;;;11.23;74.89;100629.94;5108615;27;45461;-58
2022/02/16 00:21:40;;;;;;;;;1.75;1.00;;;;;11.24;74.73;100628.16;5108533;27;45456;-57
2022/02/16 00:24:06;;;;;;;;;1.00;1.00;;;;;11.22;75.22;100620.34;5108281;27;45491;-58
2022/02/16 00:26:32;;;;;;;;;0.00;0.00;;;;;11.24;75.22;100622.88;5112935;27;45494;-58
2022/02/16 00:28:57;;;;;;;;;1.00;1.00;;;;;11.23;74.95;100622.03;5108182;27;45449;-59
2022/02/16 00:31:23;;;;;;;;;1.25;0.25;;;;;11.22;74.95;100625.63;5108514;27;45416;-59
2022/02/16 00:33:49;;;;;;;;;0.50;0.50;;;;;11.23;74.93;100608.84;5106646;27;45406;-59
2022/02/16 00:36:14;;;;;;;;;2.00;0.25;;;;;11.25;75.25;100612.22;5111330;27;45279;-58
2022/02/16 00:38:40;;;;;;;;;3.75;0.25;;;;;11.28;75.22;100614.66;5113324;27;45397;-58
2022/02/16 00:41:05;;;;;;;;;2.25;0.00;;;;;11.29;75.18;100611.06;5109709;27;45943;-59
2022/02/16 00:43:31;;;;;;;;;1.75;0.75;;;;;11.29;74.95;100594.41;5109033;27;45346;-59
2022/02/16 00:45:57;;;;;;;;;0.00;0.00;;;;;11.32;75.05;100595.06;5090814;27;45429;-59
2022/02/16 00:48:22;;;;;;;;;0.00;0.00;;;;;11.30;74.63;100591.69;5107333;27;45234;-58
2022/02/16 00:50:48;;;;;;;;;0.00;0.00;;;;;11.30;75.06;100596.13;5109281;27;46056;-57
2022/02/16 00:53:13;;;;;;;;;0.00;0.00;;;;;11.33;75.13;100590.63;5102290;27;45560;-60
2022/02/16 00:55:39;;;;;;;;;0.00;0.00;;;;;11.33;75.16;100588.00;5090319;27;45452;-60
2022/02/16 00:58:08;;;;;;;;;0.00;0.00;;;;;11.32;75.05;100581.88;5108844;27;45375;-60
2022/02/16 01:00:34;;;;;;;;;0.00;0.00;;;;;11.32;74.87;100565.22;5081683;28;45274;-60
2022/02/16 01:03:01;;;;;;;;;1.00;0.00;;;;;11.30;74.93;100560.03;5086426;27;45310;-60
2022/02/16 01:05:27;;;;;;;;;1.00;0.00;;;;;11.26;75.39;100558.53;5092127;27;45159;-61
2022/02/16 01:07:53;;;;;;;;;0.00;0.00;;;;;11.26;75.34;100558.53;5087165;27;45153;-60
2022/02/16 01:10:19;;;;;;;;;0.00;0.00;;;;;11.28;75.83;100551.38;5090683;27;45473;-59
2022/02/16 01:12:44;;;;;;;;;0.00;0.00;;;;;11.28;75.38;100543.47;5098301;27;45493;-59
2022/02/16 01:15:10;;;;;;;;;0.00;0.00;;;;;11.27;75.46;100539.13;5083895;27;45485;-59
2022/02/16 01:17:35;;;;;;;;;0.00;0.00;;;;;11.25;75.59;100541.03;5083595;27;45351;-60
2022/02/16 01:20:02;;;;;;;;;0.00;0.00;;;;;11.26;75.75;100532.16;5081344;28;46196;-60
2022/02/16 01:22:27;;;;;;;;;0.00;0.00;;;;;11.27;75.35;100535.66;5081425;27;45485;-59
2022/02/16 01:24:53;;;;;;;;;0.50;0.50;;;;;11.24;75.36;100525.31;5081541;28;45665;-59
2022/02/16 01:27:19;;;;;;;;;0.00;0.00;;;;;11.24;75.78;100526.16;5081562;27;45320;-59
2022/02/16 01:29:45;;;;;;;;;0.75;0.00;;;;;11.25;75.80;100514.66;5081339;28;45527;-60
2022/02/16 01:32:10;;;;;;;;;0.00;0.00;;;;;11.26;75.56;100528.69;5081143;28;45310;-59
2022/02/16 01:34:36;;;;;;;;;0.00;0.00;;;;;11.28;75.57;100521.50;5081435;28;45238;-60
2022/02/16 01:37:02;;;;;;;;;0.00;0.00;;;;;11.27;75.49;100520.66;5081302;27;45758;-59
2022/02/16 01:39:27;;;;;;;;;0.00;0.00;;;;;11.26;75.41;100516.34;5087855;27;46174;-59
2022/02/16 01:41:55;;;;;;;;;0.00;0.00;;;;;11.25;75.39;100511.19;5084306;27;45247;-59
2022/02/16 01:44:23;;;;;;;;;1.00;0.00;;;;;11.22;75.78;100500.81;5081419;28;45387;-60
2022/02/16 01:47:08;;;;;;;;;0.50;0.50;;;;;11.23;75.58;100497.25;5081070;27;45430;-59
2022/02/16 01:49:35;;;;;;;;;0.00;0.00;;;;;11.25;75.58;100506.75;5080650;28;46450;-60
2022/02/16 01:52:02;;;;;;;;;10.00;10.00;;;;;11.26;75.97;100499.69;5081018;28;45430;-59
2022/02/16 01:54:28;;;;;;;;;12.75;12.00;;;;;11.28;75.79;100505.69;5086133;27;45305;-60
2022/02/16 01:56:54;;;;;;;;;1.00;0.00;;;;;11.29;75.67;100489.78;5088192;27;45329;-59
2022/02/16 01:59:22;;;;;;;;;0.00;0.00;;;;;11.28;76.03;100484.59;5087610;27;46072;-59
2022/02/16 02:01:49;;;;;;;;;0.00;0.00;;;;;11.29;75.82;100473.94;5087912;27;45407;-60
2022/02/16 02:04:15;;;;;;;;;2.00;0.00;;;;;11.28;76.23;100476.69;5102992;27;45224;-60
2022/02/16 02:06:41;;;;;;;;;0.75;0.00;;;;;11.25;75.99;100466.34;5090682;27;45335;-59
2022/02/16 02:09:07;;;;;;;;;0.00;0.00;;;;;11.28;76.19;100463.50;5087689;27;46627;-59
2022/02/16 02:11:33;;;;;;;;;0.00;0.00;;;;;11.29;76.00;100452.00;5087378;27;45311;-59
2022/02/16 02:14:06;;;;;;;;;0.00;0.00;;;;;11.26;76.28;100462.78;5069499;28;45423;-59
2022/02/16 02:16:32;;;;;;;;;1.50;0.00;;;;;11.28;76.53;100448.53;5087651;27;45485;-59
2022/02/16 02:18:58;;;;;;;;;0.00;0.00;;;;;11.26;76.23;100447.78;5087799;27;45344;-59
2022/02/16 02:21:24;;;;;;;;;0.00;0.00;;;;;11.29;76.52;100452.84;5087226;27;45418;-59
2022/02/16 02:23:50;;;;;;;;;0.00;0.00;;;;;11.30;76.58;100456.38;5087840;28;45305;-59
2022/02/16 02:26:17;;;;;;;;;0.00;0.00;;;;;11.33;76.55;100450.88;5087613;27;45442;-59
2022/02/16 02:28:44;;;;;;;;;2.00;0.00;;;;;11.36;76.58;100440.09;5087449;27;45614;-59
2022/02/16 02:31:10;;;;;;;;;0.00;0.00;;;;;11.37;76.67;100436.50;5087363;27;45740;-59
2022/02/16 02:33:39;;;;;;;;;0.00;0.00;;;;;11.36;76.65;100421.66;5087467;27;45353;-60
2022/02/16 02:36:08;;;;;;;;;1.00;0.00;;;;;11.36;76.42;100421.66;5087977;27;45437;-59
2022/02/16 02:38:34;;;;;;;;;0.00;0.00;;;;;11.37;76.75;100416.25;5095157;27;45359;-60
2022/02/16 02:41:04;;;;;;;;;0.00;0.00;;;;;11.37;76.79;100407.50;5087820;27;45251;-59
2022/02/16 02:43:30;;;;;;;;;0.00;0.00;;;;;11.38;76.87;100409.22;5087442;27;45318;-60
2022/02/16 02:45:57;;;;;;;;;0.00;0.00;;;;;11.41;76.93;100409.00;5087154;27;45581;-60
2022/02/16 02:48:25;;;;;;;;;0.00;0.00;;;;;11.40;76.45;100394.97;5086958;27;46185;-60
2022/02/16 02:50:51;;;;;;;;;0.00;0.00;;;;;11.42;76.78;100400.97;5087052;27;45348;-59
2022/02/16 02:53:17;;;;;;;;;1.00;0.00;;;;;11.41;76.87;100396.66;5092341;27;45338;-60
2022/02/16 02:55:42;;;;;;;;;0.00;0.00;;;;;11.42;76.76;100385.16;5087890;27;45255;-60
2022/02/16 02:58:08;;;;;;;;;0.00;0.00;;;;;11.42;76.92;100381.69;5087006;27;46192;-60
2022/02/16 03:00:34;;;;;;;;;0.00;0.00;;;;;11.43;76.81;100381.56;5086815;27;45348;-59
2022/02/16 03:02:59;;;;;;;;;0.00;0.00;;;;;11.44;76.84;100361.31;5091891;27;45428;-59
2022/02/16 03:05:25;;;;;;;;;1.00;0.00;;;;;11.42;77.08;100382.53;5085242;28;45417;-59
2022/02/16 03:07:50;;;;;;;;;1.00;0.00;;;;;11.41;76.83;100378.19;5083633;28;45393;-59
2022/02/16 03:10:16;;;;;;;;;0.00;0.00;;;;;11.42;77.17;100357.94;5083589;27;45315;-59
2022/02/16 03:12:42;;;;;;;;;0.00;0.00;;;;;11.41;77.04;100351.81;5083871;28;45423;-59
2022/02/16 03:15:08;;;;;;;;;0.00;0.00;;;;;11.40;77.32;100339.59;5090559;27;45378;-59
2022/02/16 03:17:34;;;;;;;;;0.00;0.00;;;;;11.42;77.03;100339.47;5103972;27;45177;-59
2022/02/16 03:19:59;;;;;;;;;0.00;0.00;;;;;11.44;77.05;100340.22;5103955;27;45177;-59
2022/02/16 03:22:25;;;;;;;;;0.00;0.00;;;;;11.46;77.11;100335.69;5104065;27;45305;-59
2022/02/16 03:24:50;;;;;;;;;0.00;0.00;;;;;11.47;77.14;100337.38;5104129;27;45298;-60
2022/02/16 03:27:16;;;;;;;;;0.00;0.00;;;;;11.51;77.25;100330.94;5103679;27;45326;-59
2022/02/16 03:29:42;;;;;;;;;0.00;0.00;;;;;11.52;77.33;100323.84;5103853;27;45347;-59
2022/02/16 03:32:07;;;;;;;;;0.00;0.00;;;;;11.52;77.24;100327.34;5103977;27;45225;-59
2022/02/16 03:34:33;;;;;;;;;0.00;0.00;;;;;11.53;77.38;100318.47;5103761;27;45590;-59
2022/02/16 03:36:59;;;;;;;;;0.00;0.00;;;;;11.53;77.08;100317.63;5103597;27;45279;-59
2022/02/16 03:39:24;;;;;;;;;0.00;0.00;;;;;11.52;77.48;100316.78;5103548;27;45247;-59
2022/02/16 03:41:50;;;;;;;;;1.00;0.00;;;;;11.53;77.56;100304.44;5090295;27;45359;-59
2022/02/16 03:44:16;;;;;;;;;0.00;0.00;;;;;11.53;77.57;100318.47;5090426;27;45574;-59
2022/02/16 03:46:42;;;;;;;;;0.00;0.00;;;;;11.54;77.68;100308.78;5103354;27;46070;-59
2022/02/16 03:49:08;;;;;;;;;0.00;0.00;;;;;11.58;77.62;100311.09;5103518;27;45398;-59
2022/02/16 03:51:33;;;;;;;;;0.00;0.00;;;;;11.60;77.57;100314.44;5103308;27;45378;-59
2022/02/16 03:53:59;;;;;;;;;0.00;0.00;;;;;11.61;78.02;100297.69;5085034;27;45260;-60
2022/02/16 03:56:25;;;;;;;;;0.00;0.00;;;;;11.62;77.52;100291.47;5103293;27;45436;-60
2022/02/16 03:58:50;;;;;;;;;0.00;0.00;;;;;11.64;77.74;100294.84;5064941;28;45212;-59
2022/02/16 04:01:16;;;;;;;;;0.00;0.00;;;;;11.66;77.45;100298.19;5096015;27;45238;-60
2022/02/16 04:03:42;;;;;;;;;0.00;0.00;;;;;11.68;77.59;100300.72;5103274;27;45311;-60
2022/02/16 04:06:07;;;;;;;;;0.50;0.00;;;;;11.69;77.60;100298.00;5090259;27;45281;-60
2022/02/16 04:08:33;;;;;;;;;0.75;0.00;;;;;11.68;77.91;100290.16;5082355;27;45272;-59
2022/02/16 04:10:58;;;;;;;;;0.25;0.00;;;;;11.69;77.93;100289.22;5083102;27;45524;-60
2022/02/16 04:13:24;;;;;;;;;0.00;0.00;;;;;11.68;77.92;100292.81;5082476;27;45450;-60
2022/02/16 04:15:49;;;;;;;;;0.00;0.00;;;;;11.71;78.04;100293.44;5082467;28;45918;-60
2022/02/16 04:18:15;;;;;;;;;0.00;0.00;;;;;11.75;77.83;100291.41;5081141;28;45440;-60
2022/02/16 04:20:40;;;;;;;;;0.00;0.00;;;;;11.77;77.88;100278.97;5081904;28;45314;-60
2022/02/16 04:23:08;;;;;;;;;0.00;0.00;;;;;11.78;77.88;100288.59;5082138;28;45493;-60
2022/02/16 04:25:35;;;;;;;;;0.00;0.00;;;;;11.79;78.07;100287.63;5081986;28;46369;-60
2022/02/16 04:28:02;;;;;;;;;1.00;0.00;;;;;11.79;78.13;100284.16;5082407;28;45233;-60
2022/02/16 04:30:28;;;;;;;;;0.00;0.00;;;;;11.79;78.00;100282.34;5082528;28;45169;-60
2022/02/16 04:32:54;;;;;;;;;0.00;0.00;;;;;11.79;78.25;100287.63;5082417;27;45595;-60
2022/02/16 04:35:19;;;;;;;;;0.00;0.00;;;;;11.83;78.09;100280.34;5082193;28;46069;-60
2022/02/16 04:37:45;;;;;;;;;0.00;0.00;;;;;11.87;78.14;100279.19;5082232;27;45361;-60
2022/02/16 04:40:11;;;;;;;;;0.00;0.00;;;;;11.89;77.89;100279.91;5095240;27;45251;-60
2022/02/16 04:42:37;;;;;;;;;0.00;0.00;;;;;11.92;77.82;100277.88;5082630;27;45367;-60
2022/02/16 04:45:04;;;;;;;;;0.00;0.00;;;;;11.94;77.95;100281.28;5082018;27;46212;-60
2022/02/16 04:47:29;;;;;;;;;0.00;0.00;;;;;11.95;77.85;100280.31;5081611;28;45284;-60
2022/02/16 04:49:55;;;;;;;;;0.00;0.00;;;;;11.94;78.02;100259.31;5082201;28;45177;-60
2022/02/16 04:52:21;;;;;;;;;0.00;0.00;;;;;11.98;78.08;100268.69;5081958;28;45215;-60
2022/02/16 04:54:46;;;;;;;;;0.00;0.00;;;;;11.98;77.97;100261.59;5086515;27;46538;-60
2022/02/16 04:57:11;;;;;;;;;0.00;0.00;;;;;11.99;78.81;100263.28;5081881;27;45237;-61
2022/02/16 04:59:37;;;;;;;;;0.50;0.00;;;;;12.01;77.99;100258.78;5082160;28;45394;-60
2022/02/16 05:02:03;;;;;;;;;0.00;0.00;;;;;12.04;78.46;100249.78;5081874;28;45236;-60
2022/02/16 05:04:28;;;;;;;;;0.00;0.00;;;;;12.06;78.14;100247.00;5098921;27;45244;-60
2022/02/16 05:06:54;;;;;;;;;0.00;0.00;;;;;12.09;78.19;100252.09;5082879;27;45434;-60
2022/02/16 05:09:19;;;;;;;;;0.00;0.00;;;;;12.13;78.09;100250.88;5081907;28;45595;-60
2022/02/16 05:11:45;;;;;;;;;0.00;0.00;;;;;12.15;77.99;100260.38;5081786;27;45482;-60
2022/02/16 05:14:10;;;;;;;;;0.00;0.00;;;;;12.17;78.03;100250.56;5081633;28;45921;-60
2022/02/16 05:16:36;;;;;;;;;0.00;0.00;;;;;12.21;78.19;100267.00;5063251;28;45398;-60
2022/02/16 05:19:02;;;;;;;;;0.00;0.00;;;;;12.23;78.22;100265.09;5081649;28;45516;-60
2022/02/16 05:21:28;;;;;;;;;0.00;0.00;;;;;12.25;78.16;100274.59;5081452;27;45556;-60
2022/02/16 05:23:54;;;;;;;;;0.00;0.00;;;;;12.28;78.11;100268.25;5081585;28;45917;-60
2022/02/16 05:26:19;;;;;;;;;6.50;3.75;;;;;12.30;78.36;100284.81;5081463;28;45178;-60
2022/02/16 05:28:45;;;;;;;;;0.00;0.00;;;;;12.32;78.08;100274.97;5081263;28;45279;-60
2022/02/16 05:31:11;;;;;;;;;0.00;0.00;;;;;12.36;78.06;100259.75;5081612;28;45241;-60
2022/02/16 05:33:36;;;;;;;;;0.00;0.00;;;;;12.37;78.16;100256.16;5081268;28;46396;-61
2022/02/16 05:36:03;;;;;;;;;0.00;0.00;;;;;12.40;78.18;100266.47;5082262;27;45305;-60
2022/02/16 05:38:29;;;;;;;;;0.00;0.00;;;;;12.39;78.04;100264.81;5089362;27;45312;-60
2022/02/16 05:40:54;;;;;;;;;0.00;0.00;;;;;12.42;78.19;100262.78;5094809;27;45378;-60
2022/02/16 05:43:20;;;;;;;;;0.00;0.00;;;;;12.42;78.22;100259.31;5081401;28;46226;-60
2022/02/16 05:45:46;;;;;;;;;0.00;0.00;;;;;12.43;78.39;100261.84;5080916;27;45296;-60
2022/02/16 05:48:19;;;;;;;;;0.00;0.00;;;;;12.42;78.25;100276.00;5081185;28;45370;-60
2022/02/16 05:50:48;;;;;;;;;0.00;0.00;;;;;12.44;78.35;100266.16;5064268;28;45493;-61
2022/02/16 05:53:14;;;;;;;;;0.00;0.00;;;;;12.47;78.24;100259.78;5075981;27;45291;-59
2022/02/16 05:55:40;;;;;;;;;0.00;0.00;;;;;12.50;78.28;100267.50;5081105;27;45356;-59
2022/02/16 05:58:06;;;;;;;;;1.50;0.00;;;;;12.53;78.12;100269.91;5076076;27;45250;-59
2022/02/16 06:00:31;;;;;;;;;0.00;0.00;;;;;12.54;78.07;100269.78;5079655;28;45328;-60
2022/02/16 06:02:57;;;;;;;;;0.00;0.00;;;;;12.58;78.28;100284.47;5093994;27;45324;-60
2022/02/16 06:05:22;;;;;;;;;0.00;0.00;;;;;12.60;77.98;100279.06;5076640;28;45238;-59
2022/02/16 06:07:47;;;;;;;;;0.00;0.00;;;;;12.64;77.99;100272.59;5081002;28;45296;-59
2022/02/16 06:10:14;;;;;;;;;0.00;0.00;;;;;12.67;78.07;100260.94;5080981;27;45300;-59
2022/02/16 06:12:41;;;;;;;;;0.00;0.00;;;;;12.68;78.22;100276.69;5080648;27;45379;-60
2022/02/16 06:15:08;;;;;;;;;0.00;0.00;;;;;12.69;77.97;100270.44;5092847;27;45378;-60
2022/02/16 06:17:34;;;;;;;;;0.00;0.00;;;;;12.72;77.97;100291.38;5080816;28;45315;-61
2022/02/16 06:19:59;;;;;;;;;0.00;0.00;;;;;12.74;78.11;100278.88;5080558;28;45236;-60
2022/02/16 06:22:25;;;;;;;;;0.00;0.00;;;;;12.76;78.02;100268.19;5080552;28;45388;-60
2022/02/16 06:24:50;;;;;;;;;0.00;0.00;;;;;12.77;78.02;100267.22;5080695;28;45338;-61
2022/02/16 06:27:16;;;;;;;;;0.00;0.00;;;;;12.83;78.00;100269.41;5080861;28;45224;-61
2022/02/16 06:29:41;;;;;;;;;1.00;0.00;;;;;12.86;77.99;100261.22;5080839;27;45167;-60
2022/02/16 06:32:07;;;;;;;;;1.00;0.00;;;;;12.89;77.99;100283.97;5080554;27;45225;-60
2022/02/16 06:34:33;;;;;;;;;0.00;0.00;;;;;12.93;77.75;100294.16;5080436;27;45273;-60
2022/02/16 06:36:58;;;;;;;;;0.00;0.00;;;;;12.96;77.64;100277.25;5080624;28;45481;-60
2022/02/16 06:39:24;;;;;;;;;0.00;0.00;;;;;12.97;77.28;100245.41;5080654;27;45343;-61
2022/02/16 06:41:49;;;;;;;;;0.00;0.00;;;;;13.03;77.67;100262.56;5086369;27;46032;-61
2022/02/16 06:44:15;;;;;;;;;0.75;0.00;;;;;13.05;77.63;100287.94;5083788;27;45399;-61
2022/02/16 06:46:41;;;;;;;;;0.50;0.00;;;;;13.08;77.68;100281.56;5085524;27;45343;-60
2022/02/16 06:49:07;;;;;;;;;0.00;0.00;;;;;13.09;77.42;100275.31;5083660;27;45408;-60
2022/02/16 06:51:33;;;;;;;;;0.75;0.00;;;;;13.13;77.33;100274.16;5096834;27;46078;-60
2022/02/16 06:53:58;;;;;;;;;0.00;0.00;;;;;13.14;77.33;100273.19;5090321;27;45336;-60
2022/02/16 06:56:24;;;;;;;;;0.00;0.00;;;;;13.17;77.52;100296.72;5098067;27;45374;-60
2022/02/16 06:58:50;;;;;;;;;0.00;0.00;;;;;13.17;77.42;100315.25;5074558;27;45464;-61
2022/02/16 07:01:16;;;;;;;;;6.25;5.00;;;;;13.18;77.59;100310.78;5091564;27;45929;-61
2022/02/16 07:03:41;;;;;;;;;0.00;0.00;;;;;13.21;77.43;100308.81;5101466;27;45433;-60
2022/02/16 07:06:07;;;;;;;;;0.00;0.00;;;;;13.20;77.70;100303.63;5100462;27;45539;-60
2022/02/16 07:08:33;;;;;;;;;0.00;0.00;;;;;13.22;77.20;100304.34;5088234;27;45340;-60
2022/02/16 07:11:00;;;;;;;;;1.00;0.00;;;;;13.26;77.31;100303.16;5103961;27;46036;-60
2022/02/16 07:13:25;;;;;;;;;0.00;0.00;;;;;13.29;77.34;100308.22;5103705;27;45440;-60
2022/02/16 07:15:51;;;;;;;;;1.00;0.00;;;;;13.32;77.25;100294.75;5090243;27;45264;-60
2022/02/16 07:18:17;;;;;;;;;0.00;0.00;;;;;13.35;77.22;100305.06;5102993;27;45268;-60
2022/02/16 07:20:42;;;;;;;;;0.00;0.00;;;;;13.37;77.27;100306.66;5103862;27;45426;-60
2022/02/16 07:23:08;;;;;;;;;0.00;0.00;;;;;13.41;77.07;100304.59;5103621;27;45392;-60
2022/02/16 07:25:34;;;;;;;;;0.00;0.00;;;;;13.43;77.13;100300.06;5103876;27;45535;-61
2022/02/16 07:27:59;;;;;;;;;1.00;0.00;;;;;13.47;76.96;100287.41;5103718;27;45279;-60
2022/02/16 07:30:25;;;;;;;;;0.00;0.00;;;;;13.48;76.67;100287.28;5103741;27;45366;-60
2022/02/16 07:32:50;;;;;;;;;0.00;0.00;;;;;13.50;77.20;100292.44;5090698;27;46556;-61
2022/02/16 07:35:16;;;;;;;;;0.00;0.00;;;;;13.52;76.92;100278.16;5083485;28;45243;-61
2022/02/16 07:37:42;;;;;;;;;1.00;0.00;;;;;13.56;76.77;100281.41;5093916;27;45538;-60
2022/02/16 07:40:08;;;;;;;;;0.75;0.00;;;;;13.58;76.62;100288.22;5092405;27;45403;-60
2022/02/16 07:42:34;;;;;;;;;0.00;0.00;;;;;13.61;76.85;100297.75;5097286;27;45394;-60
2022/02/16 07:45:02;;;;;;;;;0.00;0.00;;;;;13.63;76.69;100306.41;5082731;27;45528;-60
2022/02/16 07:47:28;;;;;;;;;0.75;0.00;;;;;13.65;77.00;100321.19;5088863;27;45701;-59
2022/02/16 07:49:53;;;;;;;;;3.00;0.00;;;;;13.69;76.73;100322.66;5097239;27;46167;-60
2022/02/16 07:52:19;;;;;;;;;0.00;0.00;;;;;13.69;76.36;100327.94;5075619;27;45354;-59
2022/02/16 07:54:44;;;;;;;;;0.00;0.00;;;;;13.71;76.61;100327.81;5091792;27;45452;-60
2022/02/16 07:57:10;;;;;;;;;0.00;0.00;;;;;13.74;76.31;100318.78;5094253;27;45685;-59
2022/02/16 07:59:35;;;;;;;;;0.00;0.00;;;;;13.76;76.57;100330.13;5093186;27;45738;-60
2022/02/16 08:02:03;;;;;;;;;0.00;0.00;;;;;13.79;76.37;100328.06;5089657;27;45346;-60
2022/02/16 08:04:29;;;;;;;;;0.50;0.00;;;;;13.81;76.22;100331.41;5087676;27;45367;-60
2022/02/16 08:06:54;;;;;;;;;0.00;0.00;;;;;13.85;76.45;100329.38;5091156;27;45568;-60
2022/02/16 08:09:20;;;;;;;;;0.00;0.00;;;;;13.89;76.13;100323.72;5082196;27;45492;-60
2022/02/16 08:11:47;;;;;;;;;0.00;0.00;;;;;13.95;76.30;100314.44;5090733;27;45379;-60
2022/02/16 08:14:14;;;;;;;;;0.00;0.00;;;;;13.99;75.89;100317.72;5082420;28;45248;-60
2022/02/16 08:16:40;;;;;;;;;0.00;0.00;;;;;14.03;76.21;100325.25;5095284;27;45584;-60
2022/02/16 08:19:08;;;;;;;;;0.75;0.00;;;;;14.08;75.64;100325.75;5098766;27;45262;-60
2022/02/16 08:21:35;;;;;;;;;0.00;0.00;;;;;14.13;75.89;100342.09;5079211;27;45262;-60
2022/02/16 08:24:01;;;;;;;;;0.00;0.00;;;;;14.17;75.78;100342.69;5097312;27;45377;-60
2022/02/16 08:26:27;;;;;;;;;0.00;0.00;;;;;14.14;75.46;100350.88;5082151;27;45573;-59
2022/02/16 08:28:52;;;;;;;;;0.00;0.00;;;;;14.13;75.82;100343.91;5085572;27;45485;-60
2022/02/16 08:31:18;;;;;;;;;0.00;0.00;;;;;14.12;75.54;100350.16;5088087;27;45337;-59
2022/02/16 08:33:44;;;;;;;;;0.00;0.00;;;;;14.12;75.72;100347.50;5082106;28;46423;-60
2022/02/16 08:36:11;;;;;;;;;1.00;0.00;;;;;14.13;75.89;100335.94;5081786;28;45178;-60
2022/02/16 08:38:37;;;;;;;;;0.00;0.00;;;;;14.15;75.64;100334.03;5099481;27;45664;-60
2022/02/16 08:41:04;;;;;;;;;0.00;0.00;;;;;14.17;75.79;100338.25;5097111;27;45403;-60
2022/02/16 08:43:30;;;;;;;;;0.00;0.00;;;;;14.22;76.02;100346.66;5088931;27;45301;-60
2022/02/16 08:45:58;;;;;;;;;0.25;0.00;;;;;14.30;75.71;100335.47;5102146;27;45383;-60
2022/02/16 08:48:24;;;;;;;;;2.00;0.00;;;;;14.37;75.56;100331.31;5101688;27;45343;-60
2022/02/16 08:50:54;;;;;;;;;0.00;0.00;;;;;14.45;75.94;100346.59;5101901;27;45405;-60
2022/02/16 08:53:20;;;;;;;;;0.00;0.00;;;;;14.49;75.44;100346.25;5096731;27;45348;-60
2022/02/16 08:55:45;;;;;;;;;0.00;0.00;;;;;14.52;75.49;100339.84;5095021;27;45325;-60
2022/02/16 08:58:12;;;;;;;;;0.00;0.00;;;;;14.57;75.12;100334.19;5101814;27;46325;-60
2022/02/16 09:00:38;;;;;;;;;0.00;0.00;;;;;14.63;75.28;100349.59;5101981;27;45461;-60
2022/02/16 09:03:04;;;;;;;;;2.25;0.00;;;;;14.68;74.86;100355.34;5099144;27;45268;-60
2022/02/16 09:05:30;;;;;;;;;0.00;0.00;;;;;14.73;74.78;100361.13;5095113;27;45220;-60
2022/02/16 09:07:55;;;;;;;;;0.00;0.00;;;;;14.79;74.87;100356.16;5096318;27;45207;-60
2022/02/16 09:10:21;;;;;;;;;0.00;0.00;;;;;14.85;74.70;100345.97;5101197;27;45248;-60
2022/02/16 09:12:46;;;;;;;;;0.75;0.00;;;;;14.84;73.79;100355.75;5100216;27;45294;-60
2022/02/16 09:15:12;;;;;;;;;0.00;0.00;;;;;14.79;74.29;100360.63;5101796;27;45370;-60
2022/02/16 09:17:38;;;;;;;;;0.00;0.00;;;;;14.73;74.29;100354.00;5101431;27;45251;-60
2022/02/16 09:20:05;;;;;;;;;1.00;0.00;;;;;14.73;74.18;100369.91;5096163;27;46480;-60
2022/02/16 09:22:30;;;;;;;;;0.50;0.00;;;;;14.74;74.06;100379.53;5100307;27;45323;-60
2022/02/16 09:24:56;;;;;;;;;3.50;0.25;;;;;14.77;74.11;100378.44;5101304;27;45496;-60
2022/02/16 09:27:23;;;;;;;;;35.00;11.75;;;;;14.81;73.88;100374.56;5101107;27;45258;-60
2022/02/16 09:29:49;;;;;;;;;2.00;1.00;;;;;14.86;73.93;100375.06;5101479;27;45373;-61
2022/02/16 09:32:16;;;;;;;;;1.25;1.00;;;;;14.87;73.75;100384.69;5097229;27;45351;-61
2022/02/16 09:34:43;;;;;;;;;0.00;0.00;;;;;14.88;73.49;100389.03;5101358;27;45416;-60
2022/02/16 09:37:08;;;;;;;;;0.00;0.00;;;;;14.88;73.57;100388.19;5080943;27;49067;-60
2022/02/16 09:39:34;;;;;;;;;1.00;0.00;;;;;14.87;73.60;100390.00;5071464;27;45438;-60
2022/02/16 09:41:59;;;;;;;;;0.00;0.00;;;;;14.91;73.72;100395.88;5091595;27;45414;-60
2022/02/16 09:44:44;;;;;;;;;1.75;0.00;;;;;14.94;73.42;100399.13;5087446;27;45605;-60
2022/02/16 09:47:10;;;;;;;;;0.00;0.00;;;;;14.98;73.28;100394.41;5080916;27;45531;-60
2022/02/16 09:49:38;;;;;;;;;1.00;0.00;;;;;14.99;73.45;100390.78;5080686;28;45417;-59
2022/02/16 09:52:05;;;;;;;;;0.00;0.00;;;;;15.00;73.13;100380.03;5090466;27;45350;-59
2022/02/16 09:54:31;;;;;;;;;1.25;0.00;;;;;15.05;73.34;100377.84;5093972;27;45652;-60
2022/02/16 09:56:57;;;;;;;;;0.00;0.00;;;;;15.08;73.24;100360.81;5088909;27;45348;-61
2022/02/16 09:59:23;;;;;;;;;0.00;0.00;;;;;15.12;73.25;100380.81;5080632;27;45331;-61
2022/02/16 10:01:54;;;;;;;;;0.00;0.00;;;;;15.15;72.91;100382.38;5080856;28;45440;-60
2022/02/16 10:04:19;;;;;;;;;0.25;0.00;;;;;15.19;73.14;100384.66;5085421;27;45441;-60
2022/02/16 10:06:48;;;;;;;;;0.00;0.00;;;;;15.23;72.94;100382.56;5086429;27;45294;-61
2022/02/16 10:09:31;;;;;;;;;7.00;7.00;;;;;15.30;72.47;100389.03;5070544;27;45490;-61
2022/02/16 10:12:02;;;;;;;;;0.00;0.00;;;;;15.38;72.50;100383.09;5077613;27;45611;-61
2022/02/16 10:14:31;;;;;;;;;0.00;0.00;;;;;15.43;72.61;100378.22;5071799;27;45768;-61
2022/02/16 10:17:02;;;;;;;;;0.00;0.00;;;;;15.50;72.48;100393.50;5078594;27;47147;-61
2022/02/16 10:19:45;;;;;;;;;1.00;0.00;;;;;15.56;72.05;100381.50;5096067;27;45929;-61
2022/02/16 10:22:11;;;;;;;;;2.00;0.00;;;;;15.60;72.13;100381.13;5083880;28;45398;-61
2022/02/16 10:24:36;;;;;;;;;0.00;0.00;;;;;15.68;71.75;100384.97;5084364;27;45351;-62
2022/02/16 10:27:03;;;;;;;;;0.75;0.00;;;;;15.79;71.79;100379.56;5083983;27;45918;-63
2022/02/16 10:29:32;;;;;;;;;0.00;0.00;;;;;15.89;71.23;100369.84;5080076;27;45336;-63
2022/02/16 10:31:59;;;;;;;;;2.00;0.00;;;;;15.89;71.22;100389.28;5086472;27;45319;-63
2022/02/16 10:34:48;;;;;;;;;0.00;0.00;;;;;15.81;71.18;100398.88;5093133;27;45553;-59
2022/02/16 10:37:15;;;;;;;;;0.00;0.00;;;;;15.79;71.24;100392.84;5087941;27;46486;-59
2022/02/16 10:39:41;;;;;;;;;0.00;0.00;;;;;15.80;71.19;100410.44;5086088;27;45296;-59
2022/02/16 10:42:13;;;;;;;;;9.25;6.75;;;;;15.81;71.17;100401.53;5083382;27;45285;-59
2022/02/16 10:44:40;;;;;;;;;3.25;1.75;;;;;15.83;71.21;100384.47;5087368;27;45712;-59
2022/02/16 10:47:11;;;;;;;;;10.50;2.00;;;;;15.89;71.13;100391.09;5084274;27;46117;-59
2022/02/16 10:49:43;;;;;;;;;2.50;0.50;;;;;15.89;71.57;100404.38;5090210;27;45377;-60
2022/02/16 10:52:14;;;;;;;;;3.50;2.00;;;;;15.90;71.48;100403.38;5083966;27;45351;-60
2022/02/16 10:54:50;;;;;;;;;0.00;0.00;;;;;15.96;71.45;100409.97;5095184;27;45690;-59
2022/02/16 10:57:15;;;;;;;;;0.00;0.00;;;;;15.96;71.65;100415.28;5094552;27;46292;-59
2022/02/16 10:59:41;;;;;;;;;0.00;0.00;;;;;15.90;71.80;100414.84;5096630;27;45549;-59
2022/02/16 11:02:08;;;;;;;;;1.00;0.00;;;;;15.85;72.06;100409.09;5083222;27;45458;-61
2022/02/16 11:04:37;;;;;;;;;0.00;0.00;;;;;15.82;71.76;100430.63;5088572;27;45363;-59
2022/02/16 11:07:06;;;;;;;;;1.50;1.50;;;;;15.84;72.15;100425.16;5091637;27;45424;-59
2022/02/16 11:09:40;;;;;;;;;0.00;0.00;;;;;15.88;72.32;100424.78;5083892;27;45300;-59
2022/02/16 11:12:07;;;;;;;;;0.00;0.00;;;;;15.91;72.28;100436.94;5086298;27;45269;-58
2022/02/16 11:14:33;;;;;;;;;0.00;0.00;;;;;15.92;72.56;100438.63;5095292;27;45546;-59
2022/02/16 11:17:00;;;;;;;;;0.00;0.00;;;;;15.89;72.70;100436.25;5068791;28;48220;-60
2022/02/16 11:19:28;;;;;;;;;5.25;2.75;;;;;15.86;72.78;100420.56;5082866;27;45326;-60
2022/02/16 11:22:08;;;;;;;;;2.00;0.00;;;;;15.86;72.73;100437.31;5082842;27;45340;-59